sensor_id;sensor_type;location;lat;lon;timestamp;pressure;altitude;pressure_sealevel;temperature;humidity
23363;BME280;11853;48.080;11.960;2023-07-13T00:00:27;94795.41;;;20.27;100.00
23363;BME280;11853;48.080;11.960;2023-07-13T00:02:53;94794.50;;;20.40;100.00
23363;BME280;11853;48.080;11.960;2023-07-13T00:05:20;94792.03;;;20.38;100.00
23363;BME280;11853;48.080;11.960;2023-07-13T00:07:46;94792.06;;;20.32;100.00
23363;BME280;11853;48.080;11.960;2023-07-13T00:10:12;94785.81;;;20.31;100.00
23363;BME280;11853;48.080;11.960;2023-07-13T00:12:38;94778.59;;;20.32;100.00
23363;BME280;11853;48.080;11.960;2023-07-13T00:15:27;94765.06;;;20.38;100.00
23363;BME280;11853;48.080;11.960;2023-07-13T00:17:54;94771.28;;;20.39;100.00
23363;BME280;11853;48.080;11.960;2023-07-13T00:20:24;94765.50;;;20.35;100.00
23363;BME280;11853;48.080;11.960;2023-07-13T00:22:53;94781.28;;;20.32;100.00
23363;BME280;11853;48.080;11.960;2023-07-13T00:25:20;94780.88;;;20.28;100.00
23363;BME280;11853;48.080;11.960;2023-07-13T00:27:47;94772.78;;;20.35;100.00
23363;BME280;11853;48.080;11.960;2023-07-13T00:30:16;94779.56;;;20.37;100.00
23363;BME280;11853;48.080;11.960;2023-07-13T00:32:42;94789.38;;;20.25;100.00
23363;BME280;11853;48.080;11.960;2023-07-13T00:35:08;94792.69;;;20.27;100.00
23363;BME280;11853;48.080;11.960;2023-07-13T00:37:34;94789.19;;;20.20;100.00
23363;BME280;11853;48.080;11.960;2023-07-13T00:40:02;94802.00;;;20.31;100.00
23363;BME280;11853;48.080;11.960;2023-07-13T00:42:28;94791.00;;;20.33;100.00
23363;BME280;11853;48.080;11.960;2023-07-13T00:47:39;94796.97;;;20.41;100.00
23363;BME280;11853;48.080;11.960;2023-07-13T00:50:10;94789.75;;;20.35;100.00
23363;BME280;11853;48.080;11.960;2023-07-13T00:52:40;94785.81;;;20.31;100.00
23363;BME280;11853;48.080;11.960;2023-07-13T00:55:09;94786.63;;;20.38;100.00
23363;BME280;11853;48.080;11.960;2023-07-13T00:57:35;94780.00;;;20.41;100.00
23363;BME280;11853;48.080;11.960;2023-07-13T01:00:04;94787.03;;;20.42;100.00
23363;BME280;11853;48.080;11.960;2023-07-13T01:02:32;94793.91;;;20.38;100.00
23363;BME280;11853;48.080;11.960;2023-07-13T01:04:58;94799.69;;;20.41;100.00
23363;BME280;11853;48.080;11.960;2023-07-13T01:07:24;94796.75;;;20.43;100.00
23363;BME280;11853;48.080;11.960;2023-07-13T01:09:50;94798.72;;;20.29;100.00
23363;BME280;11853;48.080;11.960;2023-07-13T01:12:16;94792.50;;;20.22;100.00
23363;BME280;11853;48.080;11.960;2023-07-13T01:14:42;94785.91;;;20.18;100.00
23363;BME280;11853;48.080;11.960;2023-07-13T01:17:11;94775.31;;;20.16;100.00
23363;BME280;11853;48.080;11.960;2023-07-13T01:19:43;94784.00;;;20.25;100.00
23363;BME280;11853;48.080;11.960;2023-07-13T01:22:10;94767.44;;;20.21;100.00
23363;BME280;11853;48.080;11.960;2023-07-13T01:24:38;94768.88;;;20.24;100.00
23363;BME280;11853;48.080;11.960;2023-07-13T01:27:05;94766.81;;;20.26;100.00
23363;BME280;11853;48.080;11.960;2023-07-13T01:29:32;94768.63;;;20.32;100.00
23363;BME280;11853;48.080;11.960;2023-07-13T01:31:58;94758.50;;;20.28;100.00
23363;BME280;11853;48.080;11.960;2023-07-13T01:34:26;94753.09;;;20.28;100.00
23363;BME280;11853;48.080;11.960;2023-07-13T01:36:52;94740.88;;;20.25;100.00
23363;BME280;11853;48.080;11.960;2023-07-13T01:39:21;94748.56;;;20.21;100.00
23363;BME280;11853;48.080;11.960;2023-07-13T01:41:46;94747.63;;;20.02;100.00
23363;BME280;11853;48.080;11.960;2023-07-13T01:44:12;94747.38;;;20.11;100.00
23363;BME280;11853;48.080;11.960;2023-07-13T01:46:37;94753.56;;;20.18;100.00
23363;BME280;11853;48.080;11.960;2023-07-13T01:49:03;94752.09;;;20.22;100.00
23363;BME280;11853;48.080;11.960;2023-07-13T01:51:29;94762.88;;;20.22;100.00
23363;BME280;11853;48.080;11.960;2023-07-13T01:53:55;94778.66;;;20.18;100.00
23363;BME280;11853;48.080;11.960;2023-07-13T01:56:20;94781.78;;;20.15;100.00
23363;BME280;11853;48.080;11.960;2023-07-13T01:58:46;94780.53;;;20.11;100.00
23363;BME280;11853;48.080;11.960;2023-07-13T02:01:12;94779.28;;;20.14;100.00
23363;BME280;11853;48.080;11.960;2023-07-13T02:03:38;94768.97;;;20.04;100.00
23363;BME280;11853;48.080;11.960;2023-07-13T02:06:03;94765.59;;;20.09;100.00
23363;BME280;11853;48.080;11.960;2023-07-13T02:08:29;94763.09;;;20.14;100.00
23363;BME280;11853;48.080;11.960;2023-07-13T02:10:54;94769.75;;;20.18;100.00
23363;BME280;11853;48.080;11.960;2023-07-13T02:13:20;94775.78;;;20.07;100.00
23363;BME280;11853;48.080;11.960;2023-07-13T02:15:45;94768.38;;;19.95;100.00
23363;BME280;11853;48.080;11.960;2023-07-13T02:18:11;94774.75;;;20.08;100.00
23363;BME280;11853;48.080;11.960;2023-07-13T02:20:37;94775.13;;;20.11;100.00
23363;BME280;11853;48.080;11.960;2023-07-13T02:23:03;94782.47;;;19.97;100.00
23363;BME280;11853;48.080;11.960;2023-07-13T02:25:28;94780.16;;;20.01;100.00
23363;BME280;11853;48.080;11.960;2023-07-13T02:27:54;94784.91;;;20.06;100.00
23363;BME280;11853;48.080;11.960;2023-07-13T02:30:19;94783.06;;;19.99;100.00
23363;BME280;11853;48.080;11.960;2023-07-13T02:32:45;94784.72;;;20.00;100.00
23363;BME280;11853;48.080;11.960;2023-07-13T02:35:11;94785.56;;;20.01;100.00
23363;BME280;11853;48.080;11.960;2023-07-13T02:37:36;94795.06;;;20.03;100.00
23363;BME280;11853;48.080;11.960;2023-07-13T02:40:08;94796.72;;;20.05;100.00
23363;BME280;11853;48.080;11.960;2023-07-13T02:42:34;94802.34;;;19.96;100.00
23363;BME280;11853;48.080;11.960;2023-07-13T02:45:00;94802.94;;;20.05;100.00
23363;BME280;11853;48.080;11.960;2023-07-13T02:47:25;94808.72;;;20.09;100.00
23363;BME280;11853;48.080;11.960;2023-07-13T02:49:52;94824.69;;;20.10;100.00
23363;BME280;11853;48.080;11.960;2023-07-13T02:52:17;94819.09;;;20.12;100.00
23363;BME280;11853;48.080;11.960;2023-07-13T02:54:43;94810.97;;;20.18;100.00
23363;BME280;11853;48.080;11.960;2023-07-13T02:57:08;94818.22;;;20.18;100.00
23363;BME280;11853;48.080;11.960;2023-07-13T02:59:34;94824.25;;;20.13;100.00
23363;BME280;11853;48.080;11.960;2023-07-13T03:02:01;94831.28;;;20.14;100.00
23363;BME280;11853;48.080;11.960;2023-07-13T03:04:27;94832.56;;;20.12;100.00
23363;BME280;11853;48.080;11.960;2023-07-13T03:06:52;94839.78;;;20.11;100.00
23363;BME280;11853;48.080;11.960;2023-07-13T03:09:18;94836.06;;;20.06;100.00
23363;BME280;11853;48.080;11.960;2023-07-13T03:11:43;94829.47;;;20.01;100.00
23363;BME280;11853;48.080;11.960;2023-07-13T03:14:09;94826.34;;;20.05;100.00
23363;BME280;11853;48.080;11.960;2023-07-13T03:16:35;94834.63;;;20.10;100.00
23363;BME280;11853;48.080;11.960;2023-07-13T03:19:00;94828.00;;;20.12;100.00
23363;BME280;11853;48.080;11.960;2023-07-13T03:24:35;94832.94;;;20.09;100.00
23363;BME280;11853;48.080;11.960;2023-07-13T03:27:04;94834.44;;;20.05;100.00
23363;BME280;11853;48.080;11.960;2023-07-13T03:29:30;94839.59;;;20.13;100.00
23363;BME280;11853;48.080;11.960;2023-07-13T03:31:56;94839.75;;;20.24;100.00
23363;BME280;11853;48.080;11.960;2023-07-13T03:34:21;94844.28;;;20.31;100.00
23363;BME280;11853;48.080;11.960;2023-07-13T03:40:10;94848.63;;;20.38;100.00
23363;BME280;11853;48.080;11.960;2023-07-13T03:42:36;94845.94;;;20.38;100.00
23363;BME280;11853;48.080;11.960;2023-07-13T03:45:01;94845.69;;;20.40;100.00
23363;BME280;11853;48.080;11.960;2023-07-13T03:47:27;94848.81;;;20.37;100.00
23363;BME280;11853;48.080;11.960;2023-07-13T03:49:53;94844.69;;;20.34;100.00
23363;BME280;11853;48.080;11.960;2023-07-13T03:52:18;94845.53;;;20.35;100.00
23363;BME280;11853;48.080;11.960;2023-07-13T03:54:44;94842.84;;;20.35;100.00
23363;BME280;11853;48.080;11.960;2023-07-13T03:57:10;94838.28;;;20.35;100.00
23363;BME280;11853;48.080;11.960;2023-07-13T03:59:36;94833.91;;;20.34;100.00
23363;BME280;11853;48.080;11.960;2023-07-13T04:02:02;94840.97;;;20.35;100.00
23363;BME280;11853;48.080;11.960;2023-07-13T04:04:29;94848.47;;;20.27;100.00
23363;BME280;11853;48.080;11.960;2023-07-13T04:06:57;94856.34;;;20.21;100.00
23363;BME280;11853;48.080;11.960;2023-07-13T04:09:24;94859.66;;;20.23;100.00
23363;BME280;11853;48.080;11.960;2023-07-13T04:11:50;94867.53;;;20.25;100.00
23363;BME280;11853;48.080;11.960;2023-07-13T04:14:16;94870.88;;;20.20;100.00
23363;BME280;11853;48.080;11.960;2023-07-13T04:16:42;94869.00;;;20.21;100.00
23363;BME280;11853;48.080;11.960;2023-07-13T04:19:08;94868.81;;;20.16;100.00
23363;BME280;11853;48.080;11.960;2023-07-13T04:21:35;94866.13;;;20.02;100.00
23363;BME280;11853;48.080;11.960;2023-07-13T04:24:01;94862.22;;;19.98;100.00
23363;BME280;11853;48.080;11.960;2023-07-13T04:26:28;94870.91;;;19.94;100.00
23363;BME280;11853;48.080;11.960;2023-07-13T04:28:55;94876.94;;;19.89;100.00
23363;BME280;11853;48.080;11.960;2023-07-13T04:31:21;94871.97;;;19.86;100.00
23363;BME280;11853;48.080;11.960;2023-07-13T04:33:47;94865.53;;;19.94;100.00
23363;BME280;11853;48.080;11.960;2023-07-13T04:36:14;94869.28;;;19.86;100.00
23363;BME280;11853;48.080;11.960;2023-07-13T04:38:40;94872.59;;;19.88;100.00
23363;BME280;11853;48.080;11.960;2023-07-13T04:41:08;94881.72;;;19.87;100.00
23363;BME280;11853;48.080;11.960;2023-07-13T04:43:34;94879.22;;;19.79;100.00
23363;BME280;11853;48.080;11.960;2023-07-13T04:46:11;94883.81;;;19.72;100.00
23363;BME280;11853;48.080;11.960;2023-07-13T04:48:37;94885.25;;;19.68;100.00
23363;BME280;11853;48.080;11.960;2023-07-13T04:51:04;94884.59;;;19.59;100.00
23363;BME280;11853;48.080;11.960;2023-07-13T04:53:30;94895.38;;;19.66;100.00
23363;BME280;11853;48.080;11.960;2023-07-13T04:55:57;94881.72;;;19.61;100.00
23363;BME280;11853;48.080;11.960;2023-07-13T04:58:24;94889.16;;;19.65;100.00
23363;BME280;11853;48.080;11.960;2023-07-13T05:00:50;94892.50;;;19.67;100.00
23363;BME280;11853;48.080;11.960;2023-07-13T05:03:16;94890.41;;;19.76;100.00
23363;BME280;11853;48.080;11.960;2023-07-13T05:05:42;94894.13;;;19.62;100.00
23363;BME280;11853;48.080;11.960;2023-07-13T05:08:08;94895.56;;;19.64;100.00
23363;BME280;11853;48.080;11.960;2023-07-13T05:10:34;94898.47;;;19.63;100.00
23363;BME280;11853;48.080;11.960;2023-07-13T05:13:00;94907.41;;;19.70;100.00
23363;BME280;11853;48.080;11.960;2023-07-13T05:15:26;94907.81;;;19.67;100.00
23363;BME280;11853;48.080;11.960;2023-07-13T05:17:52;94914.00;;;19.61;100.00
23363;BME280;11853;48.080;11.960;2023-07-13T05:20:18;94914.84;;;19.54;100.00
23363;BME280;11853;48.080;11.960;2023-07-13T05:22:44;94910.47;;;19.60;100.00
23363;BME280;11853;48.080;11.960;2023-07-13T05:25:12;94919.41;;;19.67;100.00
23363;BME280;11853;48.080;11.960;2023-07-13T05:27:39;94916.28;;;19.64;100.00
23363;BME280;11853;48.080;11.960;2023-07-13T05:30:05;94919.41;;;19.61;100.00
23363;BME280;11853;48.080;11.960;2023-07-13T05:32:31;94920.63;;;19.65;100.00
23363;BME280;11853;48.080;11.960;2023-07-13T05:34:57;94908.84;;;19.66;100.00
23363;BME280;11853;48.080;11.960;2023-07-13T05:37:22;94914.41;;;19.64;100.00
23363;BME280;11853;48.080;11.960;2023-07-13T05:39:48;94911.16;;;19.69;100.00
23363;BME280;11853;48.080;11.960;2023-07-13T05:42:14;94911.91;;;19.63;100.00
23363;BME280;11853;48.080;11.960;2023-07-13T05:44:40;94915.25;;;19.65;100.00
23363;BME280;11853;48.080;11.960;2023-07-13T05:47:06;94910.06;;;19.56;100.00
23363;BME280;11853;48.080;11.960;2023-07-13T05:49:32;94910.47;;;19.53;100.00
23363;BME280;11853;48.080;11.960;2023-07-13T05:51:57;94912.34;;;19.46;100.00
23363;BME280;11853;48.080;11.960;2023-07-13T05:54:23;94913.19;;;19.40;100.00
23363;BME280;11853;48.080;11.960;2023-07-13T05:56:49;94917.28;;;19.43;100.00
23363;BME280;11853;48.080;11.960;2023-07-13T05:59:14;94925.59;;;19.48;100.00
23363;BME280;11853;48.080;11.960;2023-07-13T06:01:41;94920.81;;;19.56;100.00
23363;BME280;11853;48.080;11.960;2023-07-13T06:04:07;94922.91;;;19.54;100.00
23363;BME280;11853;48.080;11.960;2023-07-13T06:06:32;94921.88;;;19.55;100.00
23363;BME280;11853;48.080;11.960;2023-07-13T06:08:58;94928.91;;;19.56;100.00
23363;BME280;11853;48.080;11.960;2023-07-13T06:11:25;94936.75;;;19.51;100.00
23363;BME280;11853;48.080;11.960;2023-07-13T06:13:53;94938.66;;;19.57;100.00
23363;BME280;11853;48.080;11.960;2023-07-13T06:16:19;94940.31;;;19.58;100.00
23363;BME280;11853;48.080;11.960;2023-07-13T06:18:45;94949.00;;;19.61;100.00
23363;BME280;11853;48.080;11.960;2023-07-13T06:21:14;94937.59;;;19.58;100.00
23363;BME280;11853;48.080;11.960;2023-07-13T06:23:40;94954.16;;;19.55;100.00
23363;BME280;11853;48.080;11.960;2023-07-13T06:26:06;94947.13;;;19.54;100.00
23363;BME280;11853;48.080;11.960;2023-07-13T06:28:33;94944.44;;;19.61;100.00
23363;BME280;11853;48.080;11.960;2023-07-13T06:30:59;94945.50;;;19.73;100.00
23363;BME280;11853;48.080;11.960;2023-07-13T06:33:26;94950.06;;;19.79;100.00
23363;BME280;11853;48.080;11.960;2023-07-13T06:35:51;94953.38;;;19.88;100.00
23363;BME280;11853;48.080;11.960;2023-07-13T06:38:17;94960.81;;;19.99;100.00
23363;BME280;11853;48.080;11.960;2023-07-13T06:40:43;94955.03;;;20.09;100.00
23363;BME280;11853;48.080;11.960;2023-07-13T06:43:09;94963.09;;;20.16;100.00
23363;BME280;11853;48.080;11.960;2023-07-13T06:45:46;94958.75;;;20.21;100.00
23363;BME280;11853;48.080;11.960;2023-07-13T06:48:13;94954.16;;;20.22;100.00
23363;BME280;11853;48.080;11.960;2023-07-13T06:50:39;94967.03;;;20.27;100.00
23363;BME280;11853;48.080;11.960;2023-07-13T06:53:05;94969.91;;;20.25;100.00
23363;BME280;11853;48.080;11.960;2023-07-13T06:55:30;94982.38;;;20.26;100.00
23363;BME280;11853;48.080;11.960;2023-07-13T06:57:57;94973.25;;;20.27;100.00
23363;BME280;11853;48.080;11.960;2023-07-13T07:00:23;94972.81;;;20.30;100.00
23363;BME280;11853;48.080;11.960;2023-07-13T07:02:49;94972.81;;;20.30;100.00
23363;BME280;11853;48.080;11.960;2023-07-13T07:05:15;94972.41;;;20.27;100.00
23363;BME280;11853;48.080;11.960;2023-07-13T07:07:40;94973.22;;;20.34;100.00
23363;BME280;11853;48.080;11.960;2023-07-13T07:10:06;94973.63;;;20.37;100.00
23363;BME280;11853;48.080;11.960;2023-07-13T07:12:32;94971.75;;;20.44;100.00
23363;BME280;11853;48.080;11.960;2023-07-13T07:14:58;94966.56;;;20.50;100.00
23363;BME280;11853;48.080;11.960;2023-07-13T07:17:23;94977.59;;;20.55;100.00
23363;BME280;11853;48.080;11.960;2023-07-13T07:19:50;94974.25;;;20.53;100.00
23363;BME280;11853;48.080;11.960;2023-07-13T07:22:16;94975.91;;;20.54;100.00
23363;BME280;11853;48.080;11.960;2023-07-13T07:24:41;94976.72;;;20.54;100.00
23363;BME280;11853;48.080;11.960;2023-07-13T07:27:07;94975.91;;;20.54;100.00
23363;BME280;11853;48.080;11.960;2023-07-13T07:29:33;94976.97;;;20.53;100.00
23363;BME280;11853;48.080;11.960;2023-07-13T07:31:59;94995.59;;;20.47;100.00
23363;BME280;11853;48.080;11.960;2023-07-13T07:34:25;94990.00;;;20.42;100.00
23363;BME280;11853;48.080;11.960;2023-07-13T07:36:51;94988.53;;;20.40;100.00
23363;BME280;11853;48.080;11.960;2023-07-13T07:39:17;94988.53;;;20.40;100.00
23363;BME280;11853;48.080;11.960;2023-07-13T07:41:42;94980.03;;;20.43;100.00
23363;BME280;11853;48.080;11.960;2023-07-13T07:44:08;94982.13;;;20.47;100.00
23363;BME280;11853;48.080;11.960;2023-07-13T07:46:35;94986.03;;;20.52;100.00
23363;BME280;11853;48.080;11.960;2023-07-13T07:49:01;94988.72;;;20.52;100.00
23363;BME280;11853;48.080;11.960;2023-07-13T07:51:27;94990.44;;;20.53;100.00
23363;BME280;11853;48.080;11.960;2023-07-13T07:53:53;95006.38;;;20.54;100.00
23363;BME280;11853;48.080;11.960;2023-07-13T07:56:19;95013.84;;;20.45;100.00
23363;BME280;11853;48.080;11.960;2023-07-13T07:58:45;95021.72;;;20.47;100.00
23363;BME280;11853;48.080;11.960;2023-07-13T08:01:10;95023.81;;;20.38;100.00
23363;BME280;11853;48.080;11.960;2023-07-13T08:03:36;95020.47;;;20.36;100.00
23363;BME280;11853;48.080;11.960;2023-07-13T08:06:02;95030.84;;;20.39;100.00
23363;BME280;11853;48.080;11.960;2023-07-13T08:08:28;95032.31;;;20.35;100.00
23363;BME280;11853;48.080;11.960;2023-07-13T08:10:54;95029.00;;;20.33;100.00
23363;BME280;11853;48.080;11.960;2023-07-13T08:13:19;95024.22;;;20.35;100.00
23363;BME280;11853;48.080;11.960;2023-07-13T08:15:46;95028.78;;;20.28;100.00
23363;BME280;11853;48.080;11.960;2023-07-13T08:18:12;95030.03;;;20.32;100.00
23363;BME280;11853;48.080;11.960;2023-07-13T08:20:38;95032.31;;;20.35;100.00
23363;BME280;11853;48.080;11.960;2023-07-13T08:23:05;95034.59;;;20.38;100.00
23363;BME280;11853;48.080;11.960;2023-07-13T08:25:30;95037.28;;;20.45;100.00
23363;BME280;11853;48.080;11.960;2023-07-13T08:27:56;95033.34;;;20.47;100.00
23363;BME280;11853;48.080;11.960;2023-07-13T08:30:22;95031.25;;;20.50;100.00
23363;BME280;11853;48.080;11.960;2023-07-13T08:32:48;95034.56;;;20.52;100.00
23363;BME280;11853;48.080;11.960;2023-07-13T08:35:15;95037.72;;;20.55;100.00
23363;BME280;11853;48.080;11.960;2023-07-13T08:37:41;95037.25;;;20.52;100.00
23363;BME280;11853;48.080;11.960;2023-07-13T08:40:10;95050.97;;;20.57;100.00
23363;BME280;11853;48.080;11.960;2023-07-13T08:42:48;95042.88;;;20.57;100.00
23363;BME280;11853;48.080;11.960;2023-07-13T08:45:25;95044.97;;;20.55;100.00
23363;BME280;11853;48.080;11.960;2023-07-13T08:47:59;95043.09;;;20.55;100.00
23363;BME280;11853;48.080;11.960;2023-07-13T08:50:33;95042.47;;;20.60;100.00
23363;BME280;11853;48.080;11.960;2023-07-13T08:53:02;95040.38;;;20.62;100.00
23363;BME280;11853;48.080;11.960;2023-07-13T08:55:32;95052.41;;;20.66;100.00
23363;BME280;11853;48.080;11.960;2023-07-13T08:58:09;95057.38;;;20.62;100.00
23363;BME280;11853;48.080;11.960;2023-07-13T09:03:25;95063.00;;;20.61;100.00
23363;BME280;11853;48.080;11.960;2023-07-13T09:05:57;95064.44;;;20.57;100.00
23363;BME280;11853;48.080;11.960;2023-07-13T09:08:51;95058.88;;;20.58;100.00
23363;BME280;11853;48.080;11.960;2023-07-13T09:11:50;95059.88;;;20.57;100.00
23363;BME280;11853;48.080;11.960;2023-07-13T09:14:34;95065.50;;;20.56;100.00
23363;BME280;11853;48.080;11.960;2023-07-13T09:17:08;95063.63;;;20.56;100.00
23363;BME280;11853;48.080;11.960;2023-07-13T09:19:36;95064.44;;;20.57;100.00
23363;BME280;11853;48.080;11.960;2023-07-13T09:22:04;95066.75;;;20.53;100.00
23363;BME280;11853;48.080;11.960;2023-07-13T09:24:53;95068.19;;;20.56;100.00
23363;BME280;11853;48.080;11.960;2023-07-13T09:27:27;95071.09;;;20.61;100.00
23363;BME280;11853;48.080;11.960;2023-07-13T09:30:01;95070.44;;;20.65;100.00
23363;BME280;11853;48.080;11.960;2023-07-13T09:32:28;95067.97;;;20.64;100.00
23363;BME280;11853;48.080;11.960;2023-07-13T09:34:56;95060.72;;;20.58;100.00
23363;BME280;11853;48.080;11.960;2023-07-13T09:37:27;95060.72;;;20.58;100.00
23363;BME280;11853;48.080;11.960;2023-07-13T09:39:55;95065.72;;;20.61;100.00
23363;BME280;11853;48.080;11.960;2023-07-13T09:42:22;95063.63;;;20.56;100.00
23363;BME280;11853;48.080;11.960;2023-07-13T09:44:52;95065.06;;;20.59;100.00
23363;BME280;11853;48.080;11.960;2023-07-13T09:47:24;95068.19;;;20.56;100.00
23363;BME280;11853;48.080;11.960;2023-07-13T09:50:08;95067.38;;;20.55;100.00
23363;BME280;11853;48.080;11.960;2023-07-13T09:52:46;95060.91;;;20.50;100.00
23363;BME280;11853;48.080;11.960;2023-07-13T09:55:34;95060.72;;;20.44;100.00
23363;BME280;11853;48.080;11.960;2023-07-13T09:58:21;95074.59;;;20.41;100.00
23363;BME280;11853;48.080;11.960;2023-07-13T10:00:59;95078.94;;;20.42;100.00
23363;BME280;11853;48.080;11.960;2023-07-13T10:03:33;95072.53;;;20.43;100.00
23363;BME280;11853;48.080;11.960;2023-07-13T10:06:18;95068.78;;;20.44;100.00
23363;BME280;11853;48.080;11.960;2023-07-13T10:08:45;95080.19;;;20.46;100.00
23363;BME280;11853;48.080;11.960;2023-07-13T10:11:19;95069.41;;;20.46;100.00
23363;BME280;11853;48.080;11.960;2023-07-13T10:13:56;95073.56;;;20.42;100.00
23363;BME280;11853;48.080;11.960;2023-07-13T10:16:30;95077.06;;;20.43;100.00
23363;BME280;11853;48.080;11.960;2023-07-13T10:19:03;95084.78;;;20.46;100.00
23363;BME280;11853;48.080;11.960;2023-07-13T10:21:41;95085.59;;;20.46;100.00
23363;BME280;11853;48.080;11.960;2023-07-13T10:24:17;95086.19;;;20.48;100.00
23363;BME280;11853;48.080;11.960;2023-07-13T10:29:42;95102.38;;;20.48;100.00
23363;BME280;11853;48.080;11.960;2023-07-13T10:32:11;95110.69;;;20.47;99.03
23363;BME280;11853;48.080;11.960;2023-07-13T10:34:37;95107.56;;;20.43;99.53
23363;BME280;11853;48.080;11.960;2023-07-13T10:37:05;95107.75;;;20.48;100.00
23363;BME280;11853;48.080;11.960;2023-07-13T10:39:34;95110.25;;;20.50;100.00
23363;BME280;11853;48.080;11.960;2023-07-13T10:42:04;95107.19;;;20.53;99.69
23363;BME280;11853;48.080;11.960;2023-07-13T10:44:33;95106.34;;;20.53;98.71
23363;BME280;11853;48.080;11.960;2023-07-13T10:47:02;95107.19;;;20.53;97.70
23363;BME280;11853;48.080;11.960;2023-07-13T10:49:31;95105.94;;;20.62;99.16
23363;BME280;11853;48.080;11.960;2023-07-13T10:51:58;95104.03;;;20.76;99.86
23363;BME280;11853;48.080;11.960;2023-07-13T10:54:32;95105.91;;;20.89;99.50
23363;BME280;11853;48.080;11.960;2023-07-13T10:57:21;95110.00;;;21.05;98.30
23363;BME280;11853;48.080;11.960;2023-07-13T11:00:14;95123.06;;;21.14;98.11
23363;BME280;11853;48.080;11.960;2023-07-13T11:02:44;95117.63;;;21.28;96.39
23363;BME280;11853;48.080;11.960;2023-07-13T11:05:32;95117.41;;;21.43;94.93
23363;BME280;11853;48.080;11.960;2023-07-13T11:13:39;95116.16;;;21.90;91.35
23363;BME280;11853;48.080;11.960;2023-07-13T11:18:48;95110.09;;;21.95;82.97
23363;BME280;11853;48.080;11.960;2023-07-13T11:21:19;95113.59;;;22.02;83.42
23363;BME280;11853;48.080;11.960;2023-07-13T11:23:53;95108.13;;;22.09;84.78
23363;BME280;11853;48.080;11.960;2023-07-13T11:31:56;95107.28;;;22.46;82.40
23363;BME280;11853;48.080;11.960;2023-07-13T11:34:35;95113.59;;;22.34;76.60
23363;BME280;11853;48.080;11.960;2023-07-13T11:37:02;95113.28;;;22.23;76.31
23363;BME280;11853;48.080;11.960;2023-07-13T11:39:31;95108.09;;;22.22;74.66
23363;BME280;11853;48.080;11.960;2023-07-13T11:42:03;95102.97;;;22.39;76.10
23363;BME280;11853;48.080;11.960;2023-07-13T11:44:34;95086.50;;;22.40;70.24
23363;BME280;11853;48.080;11.960;2023-07-13T11:47:08;95089.00;;;22.42;70.90
23363;BME280;11853;48.080;11.960;2023-07-13T11:49:44;95084.34;;;22.49;71.72
23363;BME280;11853;48.080;11.960;2023-07-13T11:52:27;95088.47;;;22.58;75.62
23363;BME280;11853;48.080;11.960;2023-07-13T11:54:56;95078.41;;;22.65;76.00
23363;BME280;11853;48.080;11.960;2023-07-13T11:57:33;95075.84;;;22.70;72.48
23363;BME280;11853;48.080;11.960;2023-07-13T12:00:04;95069.56;;;22.77;74.01
23363;BME280;11853;48.080;11.960;2023-07-13T12:02:38;95074.06;;;22.83;74.80
23363;BME280;11853;48.080;11.960;2023-07-13T12:05:10;95068.66;;;22.83;75.16
23363;BME280;11853;48.080;11.960;2023-07-13T12:07:38;95064.91;;;22.84;76.50
23363;BME280;11853;48.080;11.960;2023-07-13T12:10:25;95066.72;;;22.90;75.96
23363;BME280;11853;48.080;11.960;2023-07-13T12:13:02;95063.78;;;22.91;74.60
23363;BME280;11853;48.080;11.960;2023-07-13T12:15:48;95052.94;;;22.98;73.14
23363;BME280;11853;48.080;11.960;2023-07-13T12:18:23;95057.28;;;22.99;74.07
23363;BME280;11853;48.080;11.960;2023-07-13T12:20:50;95053.78;;;22.92;72.54
23363;BME280;11853;48.080;11.960;2023-07-13T12:25:51;95048.34;;;22.74;68.79
23363;BME280;11853;48.080;11.960;2023-07-13T12:28:38;95048.34;;;22.74;73.65
23363;BME280;11853;48.080;11.960;2023-07-13T12:31:06;95037.53;;;22.74;71.62
23363;BME280;11853;48.080;11.960;2023-07-13T12:33:33;95050.63;;;22.77;71.97
23363;BME280;11853;48.080;11.960;2023-07-13T12:36:05;95056.19;;;22.82;75.72
23363;BME280;11853;48.080;11.960;2023-07-13T12:38:32;95051.06;;;22.92;74.86
23363;BME280;11853;48.080;11.960;2023-07-13T12:40:58;95045.19;;;23.02;75.41
23363;BME280;11853;48.080;11.960;2023-07-13T12:43:25;95051.28;;;23.15;75.94
23363;BME280;11853;48.080;11.960;2023-07-13T12:46:04;95041.63;;;23.20;74.03
23363;BME280;11853;48.080;11.960;2023-07-13T12:48:38;95038.31;;;23.17;74.52
23363;BME280;11853;48.080;11.960;2023-07-13T12:51:10;95045.41;;;23.19;74.39
23363;BME280;11853;48.080;11.960;2023-07-13T12:53:41;95040.00;;;23.19;74.45
23363;BME280;11853;48.080;11.960;2023-07-13T12:56:17;95043.75;;;23.17;73.45
23363;BME280;11853;48.080;11.960;2023-07-13T12:58:45;95038.47;;;23.23;73.85
23363;BME280;11853;48.080;11.960;2023-07-13T13:01:14;95037.97;;;23.32;75.59
23363;BME280;11853;48.080;11.960;2023-07-13T13:03:45;95031.94;;;23.30;73.66
23363;BME280;11853;48.080;11.960;2023-07-13T13:08:49;95034.34;;;23.20;73.20
23363;BME280;11853;48.080;11.960;2023-07-13T13:11:16;95029.84;;;23.14;72.93
23363;BME280;11853;48.080;11.960;2023-07-13T13:13:43;95020.06;;;23.13;74.04
23363;BME280;11853;48.080;11.960;2023-07-13T13:18:51;95029.63;;;23.15;74.31
23363;BME280;11853;48.080;11.960;2023-07-13T13:21:17;95022.53;;;23.14;73.41
23363;BME280;11853;48.080;11.960;2023-07-13T13:23:43;95022.53;;;23.14;73.22
23363;BME280;11853;48.080;11.960;2023-07-13T13:26:14;95018.78;;;23.15;73.36